sensor_id;sensor_type;location;lat;lon;timestamp;pressure;altitude;pressure_sealevel;temperature;humidity
16738;BME280;17906;47.684;10.806;2023-06-26T00:01:02;93393.47;;;9.41;nan
16738;BME280;17906;47.684;10.806;2023-06-26T00:03:30;93387.63;;;9.32;nan
16738;BME280;17906;47.684;10.806;2023-06-26T00:05:58;93385.72;;;9.32;nan
16738;BME280;17906;47.684;10.806;2023-06-26T00:08:26;93382.78;;;9.34;nan
16738;BME280;17906;47.684;10.806;2023-06-26T00:10:52;93395.72;;;9.32;nan
16738;BME280;17906;47.684;10.806;2023-06-26T00:13:22;93388.66;;;9.19;nan
16738;BME280;17906;47.684;10.806;2023-06-26T00:15:48;93395.94;;;9.30;nan
16738;BME280;17906;47.684;10.806;2023-06-26T00:18:15;93387.38;;;9.22;nan
16738;BME280;17906;47.684;10.806;2023-06-26T00:20:42;93390.66;;;9.24;nan
16738;BME280;17906;47.684;10.806;2023-06-26T00:23:08;93388.78;;;9.13;nan
16738;BME280;17906;47.684;10.806;2023-06-26T00:25:35;93396.91;;;9.01;nan
16738;BME280;17906;47.684;10.806;2023-06-26T00:28:02;93395.84;;;9.02;nan
16738;BME280;17906;47.684;10.806;2023-06-26T00:30:29;93394.31;;;9.06;nan
16738;BME280;17906;47.684;10.806;2023-06-26T00:32:56;93395.03;;;9.01;nan
16738;BME280;17906;47.684;10.806;2023-06-26T00:35:23;93385.13;;;8.95;nan
16738;BME280;17906;47.684;10.806;2023-06-26T00:37:49;93380.56;;;8.96;nan
16738;BME280;17906;47.684;10.806;2023-06-26T00:40:16;93380.22;;;8.92;nan
16738;BME280;17906;47.684;10.806;2023-06-26T00:42:43;93383.50;;;8.94;nan
16738;BME280;17906;47.684;10.806;2023-06-26T00:45:09;93389.72;;;8.95;nan
16738;BME280;17906;47.684;10.806;2023-06-26T00:47:38;93388.78;;;9.01;nan
16738;BME280;17906;47.684;10.806;2023-06-26T00:50:06;93383.97;;;9.03;nan
16738;BME280;17906;47.684;10.806;2023-06-26T00:52:32;93384.56;;;8.93;nan
16738;BME280;17906;47.684;10.806;2023-06-26T00:54:59;93386.78;;;8.85;nan
16738;BME280;17906;47.684;10.806;2023-06-26T00:57:26;93387.72;;;8.79;nan
16738;BME280;17906;47.684;10.806;2023-06-26T00:59:53;93387.72;;;8.79;nan
16738;BME280;17906;47.684;10.806;2023-06-26T01:02:20;93382.19;;;8.73;nan
16738;BME280;17906;47.684;10.806;2023-06-26T01:04:48;93383.47;;;8.71;nan
16738;BME280;17906;47.684;10.806;2023-06-26T01:07:16;93383.34;;;8.66;nan
16738;BME280;17906;47.684;10.806;2023-06-26T01:09:44;93381.81;;;8.58;nan
16738;BME280;17906;47.684;10.806;2023-06-26T01:12:11;93382.97;;;8.51;nan
16738;BME280;17906;47.684;10.806;2023-06-26T01:14:38;93383.31;;;8.42;nan
16738;BME280;17906;47.684;10.806;2023-06-26T01:17:04;93379.69;;;8.49;nan
16738;BME280;17906;47.684;10.806;2023-06-26T01:19:33;93389.09;;;8.46;nan
16738;BME280;17906;47.684;10.806;2023-06-26T01:22:10;93379.91;;;8.35;nan
16738;BME280;17906;47.684;10.806;2023-06-26T01:24:45;93380.03;;;8.40;nan
16738;BME280;17906;47.684;10.806;2023-06-26T01:27:19;93386.50;;;8.51;nan
16738;BME280;17906;47.684;10.806;2023-06-26T01:29:49;93368.66;;;8.62;nan
16738;BME280;17906;47.684;10.806;2023-06-26T01:32:16;93368.88;;;8.49;nan
16738;BME280;17906;47.684;10.806;2023-06-26T01:34:43;93386.56;;;8.33;nan
16738;BME280;17906;47.684;10.806;2023-06-26T01:37:11;93380.56;;;8.31;nan
16738;BME280;17906;47.684;10.806;2023-06-26T01:39:37;93377.09;;;8.42;nan
16738;BME280;17906;47.684;10.806;2023-06-26T01:42:04;93380.03;;;8.40;nan
16738;BME280;17906;47.684;10.806;2023-06-26T01:44:35;93385.06;;;8.37;nan
16738;BME280;17906;47.684;10.806;2023-06-26T01:47:04;93377.53;;;8.27;nan
16738;BME280;17906;47.684;10.806;2023-06-26T01:49:38;93377.38;;;8.22;nan
16738;BME280;17906;47.684;10.806;2023-06-26T01:52:12;93372.31;;;8.14;nan
16738;BME280;17906;47.684;10.806;2023-06-26T01:54:49;93371.00;;;8.05;nan
16738;BME280;17906;47.684;10.806;2023-06-26T01:57:20;93371.75;;;8.12;nan
16738;BME280;17906;47.684;10.806;2023-06-26T01:59:50;93372.38;;;7.96;nan
16738;BME280;17906;47.684;10.806;2023-06-26T02:02:17;93371.56;;;7.95;nan
16738;BME280;17906;47.684;10.806;2023-06-26T02:04:44;93369.34;;;8.04;nan
16738;BME280;17906;47.684;10.806;2023-06-26T02:07:13;93369.63;;;8.14;nan
16738;BME280;17906;47.684;10.806;2023-06-26T02:09:40;93374.88;;;8.09;nan
16738;BME280;17906;47.684;10.806;2023-06-26T02:12:07;93366.38;;;7.94;nan
16738;BME280;17906;47.684;10.806;2023-06-26T02:14:34;93378.88;;;8.06;nan
16738;BME280;17906;47.684;10.806;2023-06-26T02:17:02;93371.34;;;8.08;nan
16738;BME280;17906;47.684;10.806;2023-06-26T02:19:28;93368.97;;;8.00;nan
16738;BME280;17906;47.684;10.806;2023-06-26T02:21:55;93371.94;;;7.80;nan
16738;BME280;17906;47.684;10.806;2023-06-26T02:24:22;93379.09;;;7.86;nan
16738;BME280;17906;47.684;10.806;2023-06-26T02:26:48;93378.25;;;7.93;nan
16738;BME280;17906;47.684;10.806;2023-06-26T02:29:16;93379.78;;;8.00;nan
16738;BME280;17906;47.684;10.806;2023-06-26T02:31:42;93376.25;;;8.00;nan
16738;BME280;17906;47.684;10.806;2023-06-26T02:34:10;93382.34;;;7.95;nan
16738;BME280;17906;47.684;10.806;2023-06-26T02:36:36;93376.88;;;7.83;nan
16738;BME280;17906;47.684;10.806;2023-06-26T02:39:03;93390.31;;;7.72;nan
16738;BME280;17906;47.684;10.806;2023-06-26T02:41:30;93391.59;;;7.69;nan
16738;BME280;17906;47.684;10.806;2023-06-26T02:43:56;93387.38;;;7.73;nan
16738;BME280;17906;47.684;10.806;2023-06-26T02:46:24;93384.75;;;7.67;nan
16738;BME280;17906;47.684;10.806;2023-06-26T02:48:51;93380.94;;;7.56;nan
16738;BME280;17906;47.684;10.806;2023-06-26T02:51:19;93393.19;;;7.58;nan
16738;BME280;17906;47.684;10.806;2023-06-26T02:53:45;93387.78;;;7.58;nan
16738;BME280;17906;47.684;10.806;2023-06-26T02:56:12;93388.81;;;7.57;nan
16738;BME280;17906;47.684;10.806;2023-06-26T02:58:38;93390.16;;;7.67;nan
16738;BME280;17906;47.684;10.806;2023-06-26T03:01:05;93389.19;;;7.79;nan
16738;BME280;17906;47.684;10.806;2023-06-26T03:03:31;93392.31;;;7.76;nan
16738;BME280;17906;47.684;10.806;2023-06-26T03:06:05;93392.78;;;7.73;nan
16738;BME280;17906;47.684;10.806;2023-06-26T03:08:36;93387.31;;;7.62;nan
16738;BME280;17906;47.684;10.806;2023-06-26T03:11:02;93391.91;;;7.61;nan
16738;BME280;17906;47.684;10.806;2023-06-26T03:13:29;93389.25;;;7.73;nan
16738;BME280;17906;47.684;10.806;2023-06-26T03:15:56;93389.38;;;7.48;nan
16738;BME280;17906;47.684;10.806;2023-06-26T03:18:22;93383.28;;;7.52;nan
16738;BME280;17906;47.684;10.806;2023-06-26T03:20:49;93383.88;;;7.54;nan
16738;BME280;17906;47.684;10.806;2023-06-26T03:23:16;93382.81;;;7.55;nan
16738;BME280;17906;47.684;10.806;2023-06-26T03:25:43;93393.03;;;7.53;nan
16738;BME280;17906;47.684;10.806;2023-06-26T03:28:10;93387.16;;;7.56;nan
16738;BME280;17906;47.684;10.806;2023-06-26T03:30:37;93386.75;;;7.60;nan
16738;BME280;17906;47.684;10.806;2023-06-26T03:33:03;93384.09;;;7.71;nan
16738;BME280;17906;47.684;10.806;2023-06-26T03:35:30;93381.41;;;7.71;nan
16738;BME280;17906;47.684;10.806;2023-06-26T03:37:57;93380.47;;;7.77;nan
16738;BME280;17906;47.684;10.806;2023-06-26T03:40:23;93383.88;;;7.73;nan
16738;BME280;17906;47.684;10.806;2023-06-26T03:42:52;93391.50;;;7.76;nan
16738;BME280;17906;47.684;10.806;2023-06-26T03:45:18;93381.28;;;7.78;nan
16738;BME280;17906;47.684;10.806;2023-06-26T03:47:45;93386.31;;;7.74;nan
16738;BME280;17906;47.684;10.806;2023-06-26T03:50:14;93391.13;;;7.72;nan
16738;BME280;17906;47.684;10.806;2023-06-26T03:52:40;93393.31;;;7.64;nan
16738;BME280;17906;47.684;10.806;2023-06-26T03:55:07;93388.16;;;7.62;nan
16738;BME280;17906;47.684;10.806;2023-06-26T03:57:34;93391.03;;;7.79;nan
16738;BME280;17906;47.684;10.806;2023-06-26T04:00:02;93391.03;;;7.79;nan
16738;BME280;17906;47.684;10.806;2023-06-26T04:02:33;93390.31;;;7.72;nan
16738;BME280;17906;47.684;10.806;2023-06-26T04:05:00;93384.69;;;7.73;nan
16738;BME280;17906;47.684;10.806;2023-06-26T04:07:26;93395.84;;;7.77;nan
16738;BME280;17906;47.684;10.806;2023-06-26T04:09:53;93386.03;;;7.82;nan
16738;BME280;17906;47.684;10.806;2023-06-26T04:12:20;93397.88;;;7.81;nan
16738;BME280;17906;47.684;10.806;2023-06-26T04:14:46;93389.63;;;7.95;nan
16738;BME280;17906;47.684;10.806;2023-06-26T04:17:14;93386.84;;;8.01;nan
16738;BME280;17906;47.684;10.806;2023-06-26T04:19:41;93390.22;;;7.97;nan
16738;BME280;17906;47.684;10.806;2023-06-26T04:22:07;93383.81;;;8.09;nan
16738;BME280;17906;47.684;10.806;2023-06-26T04:24:33;93393.81;;;8.21;nan
16738;BME280;17906;47.684;10.806;2023-06-26T04:27:00;93393.41;;;8.35;nan
16738;BME280;17906;47.684;10.806;2023-06-26T04:29:27;93391.41;;;8.42;nan
16738;BME280;17906;47.684;10.806;2023-06-26T04:31:54;93394.97;;;8.55;nan
16738;BME280;17906;47.684;10.806;2023-06-26T04:34:24;93394.78;;;8.68;nan
16738;BME280;17906;47.684;10.806;2023-06-26T04:36:51;93398.06;;;8.82;nan
16738;BME280;17906;47.684;10.806;2023-06-26T04:39:17;93396.19;;;8.94;nan
16738;BME280;17906;47.684;10.806;2023-06-26T04:41:45;93386.78;;;9.08;nan
16738;BME280;17906;47.684;10.806;2023-06-26T04:44:11;93389.84;;;9.23;nan
16738;BME280;17906;47.684;10.806;2023-06-26T04:46:39;93392.28;;;9.37;nan
16738;BME280;17906;47.684;10.806;2023-06-26T04:49:06;93391.25;;;9.49;nan
16738;BME280;17906;47.684;10.806;2023-06-26T04:51:34;93387.00;;;9.65;nan
16738;BME280;17906;47.684;10.806;2023-06-26T04:54:05;93391.97;;;9.85;nan
16738;BME280;17906;47.684;10.806;2023-06-26T04:56:32;93394.19;;;10.00;nan
16738;BME280;17906;47.684;10.806;2023-06-26T04:58:59;59087.34;;;-146.04;100.00
16738;BME280;17906;47.684;10.806;2023-06-26T05:01:25;93398.56;;;10.29;nan
16738;BME280;17906;47.684;10.806;2023-06-26T05:03:54;59087.34;;;-146.04;100.00
16738;BME280;17906;47.684;10.806;2023-06-26T05:06:20;93395.16;;;10.67;nan
16738;BME280;17906;47.684;10.806;2023-06-26T05:08:48;93400.81;;;10.83;nan
16738;BME280;17906;47.684;10.806;2023-06-26T05:11:15;93394.88;;;10.97;nan
16738;BME280;17906;47.684;10.806;2023-06-26T05:13:41;93389.25;;;11.21;nan
16738;BME280;17906;47.684;10.806;2023-06-26T05:16:09;93390.06;;;11.38;nan
16738;BME280;17906;47.684;10.806;2023-06-26T05:18:36;93396.59;;;11.59;nan
16738;BME280;17906;47.684;10.806;2023-06-26T05:21:03;93389.63;;;11.85;nan
16738;BME280;17906;47.684;10.806;2023-06-26T05:23:31;59087.34;;;-146.04;100.00
16738;BME280;17906;47.684;10.806;2023-06-26T05:25:59;59087.34;;;-146.04;100.00
16738;BME280;17906;47.684;10.806;2023-06-26T05:28:27;59087.34;;;-146.04;100.00
16738;BME280;17906;47.684;10.806;2023-06-26T05:30:55;59087.34;;;-146.04;100.00
16738;BME280;17906;47.684;10.806;2023-06-26T05:33:23;59087.34;;;-146.04;100.00
16738;BME280;17906;47.684;10.806;2023-06-26T05:35:51;59087.34;;;-146.04;100.00
16738;BME280;17906;47.684;10.806;2023-06-26T05:38:19;59087.34;;;-146.04;100.00
16738;BME280;17906;47.684;10.806;2023-06-26T05:40:46;59087.34;;;-146.04;100.00
16738;BME280;17906;47.684;10.806;2023-06-26T05:43:15;59087.34;;;-146.04;100.00
16738;BME280;17906;47.684;10.806;2023-06-26T05:45:41;59087.34;;;-146.04;100.00
16738;BME280;17906;47.684;10.806;2023-06-26T05:48:08;59087.34;;;-146.04;100.00
16738;BME280;17906;47.684;10.806;2023-06-26T05:50:35;59087.34;;;-146.04;100.00
16738;BME280;17906;47.684;10.806;2023-06-26T05:53:02;59087.34;;;-146.04;100.00
16738;BME280;17906;47.684;10.806;2023-06-26T05:55:31;59087.34;;;-146.04;100.00
16738;BME280;17906;47.684;10.806;2023-06-26T05:57:58;59087.34;;;-146.04;100.00
16738;BME280;17906;47.684;10.806;2023-06-26T06:00:27;59087.34;;;-146.04;100.00
16738;BME280;17906;47.684;10.806;2023-06-26T06:02:54;59087.34;;;-146.04;100.00
16738;BME280;17906;47.684;10.806;2023-06-26T06:05:21;59087.34;;;-146.04;100.00
16738;BME280;17906;47.684;10.806;2023-06-26T06:07:47;59087.34;;;-146.04;100.00
16738;BME280;17906;47.684;10.806;2023-06-26T06:12:40;93385.81;;;17.38;nan
16738;BME280;17906;47.684;10.806;2023-06-26T06:15:07;93373.88;;;17.58;nan
16738;BME280;17906;47.684;10.806;2023-06-26T06:17:35;93389.78;;;17.85;nan
16738;BME280;17906;47.684;10.806;2023-06-26T06:20:02;93389.84;;;18.04;nan
16738;BME280;17906;47.684;10.806;2023-06-26T06:22:29;93388.78;;;18.29;nan
16738;BME280;17906;47.684;10.806;2023-06-26T06:24:56;93389.44;;;18.44;nan
16738;BME280;17906;47.684;10.806;2023-06-26T06:27:22;93385.53;;;18.69;nan
16738;BME280;17906;47.684;10.806;2023-06-26T06:29:49;93390.44;;;18.91;nan
16738;BME280;17906;47.684;10.806;2023-06-26T06:32:16;93394.88;;;19.11;nan
16738;BME280;17906;47.684;10.806;2023-06-26T06:34:44;93390.28;;;19.39;nan
16738;BME280;17906;47.684;10.806;2023-06-26T06:37:11;93382.47;;;19.65;nan
16738;BME280;17906;47.684;10.806;2023-06-26T06:39:37;59087.34;;;-146.04;100.00
16738;BME280;17906;47.684;10.806;2023-06-26T06:42:04;59087.34;;;-146.04;100.00
16738;BME280;17906;47.684;10.806;2023-06-26T06:44:31;59087.34;;;-146.04;100.00
16738;BME280;17906;47.684;10.806;2023-06-26T06:46:58;59087.34;;;-146.04;100.00
16738;BME280;17906;47.684;10.806;2023-06-26T06:49:25;59087.34;;;-146.04;100.00
16738;BME280;17906;47.684;10.806;2023-06-26T06:51:53;59087.34;;;-146.04;100.00
16738;BME280;17906;47.684;10.806;2023-06-26T06:54:19;59087.34;;;-146.04;100.00
16738;BME280;17906;47.684;10.806;2023-06-26T06:56:46;59087.34;;;-146.04;100.00
16738;BME280;17906;47.684;10.806;2023-06-26T06:59:12;59087.34;;;-146.04;100.00
16738;BME280;17906;47.684;10.806;2023-06-26T07:01:39;59087.34;;;-146.04;100.00
16738;BME280;17906;47.684;10.806;2023-06-26T07:04:06;59087.34;;;-146.04;100.00
16738;BME280;17906;47.684;10.806;2023-06-26T07:06:32;59087.34;;;-146.04;100.00
16738;BME280;17906;47.684;10.806;2023-06-26T07:09:01;59087.34;;;-146.04;100.00
16738;BME280;17906;47.684;10.806;2023-06-26T07:11:28;59087.34;;;-146.04;100.00
16738;BME280;17906;47.684;10.806;2023-06-26T07:13:55;59087.34;;;-146.04;100.00
16738;BME280;17906;47.684;10.806;2023-06-26T07:16:22;59087.34;;;-146.04;100.00
16738;BME280;17906;47.684;10.806;2023-06-26T07:18:48;59087.34;;;-146.04;100.00
16738;BME280;17906;47.684;10.806;2023-06-26T07:21:15;59087.34;;;-146.04;100.00
16738;BME280;17906;47.684;10.806;2023-06-26T07:23:42;59087.34;;;-146.04;100.00
16738;BME280;17906;47.684;10.806;2023-06-26T07:26:10;59087.34;;;-146.04;100.00
16738;BME280;17906;47.684;10.806;2023-06-26T07:28:36;59087.34;;;-146.04;100.00
16738;BME280;17906;47.684;10.806;2023-06-26T07:31:03;59087.34;;;-146.04;100.00
16738;BME280;17906;47.684;10.806;2023-06-26T07:33:30;59087.34;;;-146.04;100.00
16738;BME280;17906;47.684;10.806;2023-06-26T07:35:56;59087.34;;;-146.04;100.00
16738;BME280;17906;47.684;10.806;2023-06-26T07:38:23;59087.34;;;-146.04;100.00
16738;BME280;17906;47.684;10.806;2023-06-26T07:40:49;59087.34;;;-146.04;100.00
16738;BME280;17906;47.684;10.806;2023-06-26T07:43:17;59087.34;;;-146.04;100.00
16738;BME280;17906;47.684;10.806;2023-06-26T07:45:44;59087.34;;;-146.04;100.00
16738;BME280;17906;47.684;10.806;2023-06-26T07:48:10;59087.34;;;-146.04;100.00
16738;BME280;17906;47.684;10.806;2023-06-26T07:50:37;59087.34;;;-146.04;100.00
16738;BME280;17906;47.684;10.806;2023-06-26T07:53:03;59087.34;;;-146.04;100.00
16738;BME280;17906;47.684;10.806;2023-06-26T07:55:31;59087.34;;;-146.04;100.00
16738;BME280;17906;47.684;10.806;2023-06-26T07:57:57;59087.34;;;-146.04;100.00
16738;BME280;17906;47.684;10.806;2023-06-26T08:00:25;59087.34;;;-146.04;100.00
16738;BME280;17906;47.684;10.806;2023-06-26T08:02:52;59087.34;;;-146.04;100.00
16738;BME280;17906;47.684;10.806;2023-06-26T08:05:19;59087.34;;;-146.04;100.00
16738;BME280;17906;47.684;10.806;2023-06-26T08:07:45;59087.34;;;-146.04;100.00
16738;BME280;17906;47.684;10.806;2023-06-26T08:10:12;59087.34;;;-146.04;100.00
16738;BME280;17906;47.684;10.806;2023-06-26T08:12:38;59087.34;;;-146.04;100.00
16738;BME280;17906;47.684;10.806;2023-06-26T08:15:08;59087.34;;;-146.04;100.00
16738;BME280;17906;47.684;10.806;2023-06-26T08:17:37;59087.34;;;-146.04;100.00
16738;BME280;17906;47.684;10.806;2023-06-26T08:20:05;59087.34;;;-146.04;100.00
16738;BME280;17906;47.684;10.806;2023-06-26T08:22:33;59087.34;;;-146.04;100.00
16738;BME280;17906;47.684;10.806;2023-06-26T08:25:02;59087.34;;;-146.04;100.00
16738;BME280;17906;47.684;10.806;2023-06-26T08:27:29;59087.34;;;-146.04;100.00
16738;BME280;17906;47.684;10.806;2023-06-26T08:29:55;59087.34;;;-146.04;100.00
16738;BME280;17906;47.684;10.806;2023-06-26T08:32:22;59087.34;;;-146.04;100.00
16738;BME280;17906;47.684;10.806;2023-06-26T08:34:50;59087.34;;;-146.04;100.00
16738;BME280;17906;47.684;10.806;2023-06-26T08:37:16;59087.34;;;-146.04;100.00
16738;BME280;17906;47.684;10.806;2023-06-26T08:39:43;59087.34;;;-146.04;100.00
16738;BME280;17906;47.684;10.806;2023-06-26T08:42:09;59087.34;;;-146.04;100.00
16738;BME280;17906;47.684;10.806;2023-06-26T08:44:36;59087.34;;;-146.04;100.00
16738;BME280;17906;47.684;10.806;2023-06-26T08:47:03;59087.34;;;-146.04;100.00
16738;BME280;17906;47.684;10.806;2023-06-26T08:49:37;59087.34;;;-146.04;100.00
16738;BME280;17906;47.684;10.806;2023-06-26T08:52:17;59087.34;;;-146.04;100.00
16738;BME280;17906;47.684;10.806;2023-06-26T08:54:46;59087.34;;;-146.04;100.00
16738;BME280;17906;47.684;10.806;2023-06-26T08:57:18;59087.34;;;-146.04;100.00
16738;BME280;17906;47.684;10.806;2023-06-26T08:59:46;59087.34;;;-146.04;100.00
16738;BME280;17906;47.684;10.806;2023-06-26T09:02:13;59087.34;;;-146.04;100.00
16738;BME280;17906;47.684;10.806;2023-06-26T09:04:40;59087.34;;;-146.04;100.00
16738;BME280;17906;47.684;10.806;2023-06-26T09:07:07;59087.34;;;-146.04;100.00
16738;BME280;17906;47.684;10.806;2023-06-26T09:09:35;59087.34;;;-146.04;100.00
16738;BME280;17906;47.684;10.806;2023-06-26T09:12:03;59087.34;;;-146.04;100.00
16738;BME280;17906;47.684;10.806;2023-06-26T09:14:30;59087.34;;;-146.04;100.00
16738;BME280;17906;47.684;10.806;2023-06-26T09:16:56;59087.34;;;-146.04;100.00
16738;BME280;17906;47.684;10.806;2023-06-26T09:19:23;59087.34;;;-146.04;100.00
16738;BME280;17906;47.684;10.806;2023-06-26T09:21:50;59087.34;;;-146.04;100.00
16738;BME280;17906;47.684;10.806;2023-06-26T09:24:17;59087.34;;;-146.04;100.00
16738;BME280;17906;47.684;10.806;2023-06-26T09:26:49;59087.34;;;-146.04;100.00
16738;BME280;17906;47.684;10.806;2023-06-26T09:29:17;59087.34;;;-146.04;100.00
16738;BME280;17906;47.684;10.806;2023-06-26T09:31:44;59087.34;;;-146.04;100.00
16738;BME280;17906;47.684;10.806;2023-06-26T09:34:11;59087.34;;;-146.04;100.00
16738;BME280;17906;47.684;10.806;2023-06-26T09:36:37;59087.34;;;-146.04;100.00
16738;BME280;17906;47.684;10.806;2023-06-26T09:39:05;59087.34;;;-146.04;100.00
16738;BME280;17906;47.684;10.806;2023-06-26T09:41:34;59087.34;;;-146.04;100.00
16738;BME280;17906;47.684;10.806;2023-06-26T09:44:02;59087.34;;;-146.04;100.00
16738;BME280;17906;47.684;10.806;2023-06-26T09:46:30;59087.34;;;-146.04;100.00
16738;BME280;17906;47.684;10.806;2023-06-26T09:49:01;59087.34;;;-146.04;100.00
16738;BME280;17906;47.684;10.806;2023-06-26T09:51:29;59087.34;;;-146.04;100.00
16738;BME280;17906;47.684;10.806;2023-06-26T09:53:56;59087.34;;;-146.04;100.00
16738;BME280;17906;47.684;10.806;2023-06-26T09:56:23;59087.34;;;-146.04;100.00
16738;BME280;17906;47.684;10.806;2023-06-26T09:58:50;59087.34;;;-146.04;100.00
16738;BME280;17906;47.684;10.806;2023-06-26T10:01:19;59087.34;;;-146.04;100.00
16738;BME280;17906;47.684;10.806;2023-06-26T10:03:45;59087.34;;;-146.04;100.00
16738;BME280;17906;47.684;10.806;2023-06-26T10:06:12;59087.34;;;-146.04;100.00
16738;BME280;17906;47.684;10.806;2023-06-26T10:08:39;59087.34;;;-146.04;100.00
16738;BME280;17906;47.684;10.806;2023-06-26T10:11:08;59087.34;;;-146.04;100.00
16738;BME280;17906;47.684;10.806;2023-06-26T10:13:39;59087.34;;;-146.04;100.00
16738;BME280;17906;47.684;10.806;2023-06-26T10:16:10;59087.34;;;-146.04;100.00
16738;BME280;17906;47.684;10.806;2023-06-26T10:18:39;59087.34;;;-146.04;100.00
16738;BME280;17906;47.684;10.806;2023-06-26T10:21:07;59087.34;;;-146.04;100.00
16738;BME280;17906;47.684;10.806;2023-06-26T10:23:36;59087.34;;;-146.04;100.00
16738;BME280;17906;47.684;10.806;2023-06-26T10:26:06;59087.34;;;-146.04;100.00
16738;BME280;17906;47.684;10.806;2023-06-26T10:28:34;59087.34;;;-146.04;100.00
16738;BME280;17906;47.684;10.806;2023-06-26T10:31:03;59087.34;;;-146.04;100.00
16738;BME280;17906;47.684;10.806;2023-06-26T10:33:31;59087.34;;;-146.04;100.00
16738;BME280;17906;47.684;10.806;2023-06-26T10:36:14;93449.69;;;27.35;nan
16738;BME280;17906;47.684;10.806;2023-06-26T10:38:50;93337.97;;;27.12;nan
16738;BME280;17906;47.684;10.806;2023-06-26T10:41:20;93332.31;;;26.72;nan
16738;BME280;17906;47.684;10.806;2023-06-26T10:43:49;93335.66;;;25.87;nan
16738;BME280;17906;47.684;10.806;2023-06-26T10:46:17;93343.06;;;25.20;nan
16738;BME280;17906;47.684;10.806;2023-06-26T10:48:57;93332.84;;;25.75;nan
16738;BME280;17906;47.684;10.806;2023-06-26T10:51:25;93335.34;;;26.46;nan
16738;BME280;17906;47.684;10.806;2023-06-26T10:53:54;93324.63;;;27.18;nan
16738;BME280;17906;47.684;10.806;2023-06-26T10:56:21;93329.97;;;27.63;nan
16738;BME280;17906;47.684;10.806;2023-06-26T10:58:48;93325.66;;;27.65;nan
16738;BME280;17906;47.684;10.806;2023-06-26T11:01:19;93326.38;;;27.62;nan
16738;BME280;17906;47.684;10.806;2023-06-26T11:03:48;93327.13;;;27.87;nan
16738;BME280;17906;47.684;10.806;2023-06-26T11:06:18;93327.81;;;28.12;nan
16738;BME280;17906;47.684;10.806;2023-06-26T11:08:47;93318.66;;;27.84;nan
16738;BME280;17906;47.684;10.806;2023-06-26T11:11:14;93325.41;;;27.83;nan
16738;BME280;17906;47.684;10.806;2023-06-26T11:13:42;93324.75;;;28.02;nan
16738;BME280;17906;47.684;10.806;2023-06-26T11:16:08;93325.28;;;28.07;nan
16738;BME280;17906;47.684;10.806;2023-06-26T11:18:37;93310.31;;;28.27;nan
16738;BME280;17906;47.684;10.806;2023-06-26T11:21:05;93308.19;;;28.37;nan
16738;BME280;17906;47.684;10.806;2023-06-26T11:23:32;93313.75;;;28.37;nan
16738;BME280;17906;47.684;10.806;2023-06-26T11:26:14;93316.75;;;28.60;nan
16738;BME280;17906;47.684;10.806;2023-06-26T11:28:46;93321.97;;;28.17;nan
16738;BME280;17906;47.684;10.806;2023-06-26T11:31:24;93315.41;;;28.53;nan
16738;BME280;17906;47.684;10.806;2023-06-26T11:33:57;93305.31;;;28.49;nan
16738;BME280;17906;47.684;10.806;2023-06-26T11:36:26;93315.03;;;28.55;nan
16738;BME280;17906;47.684;10.806;2023-06-26T11:38:53;93305.31;;;28.80;nan
16738;BME280;17906;47.684;10.806;2023-06-26T11:41:23;93314.50;;;28.97;nan
16738;BME280;17906;47.684;10.806;2023-06-26T11:43:50;93330.25;;;28.57;nan
16738;BME280;17906;47.684;10.806;2023-06-26T11:46:18;93324.03;;;28.80;nan
16738;BME280;17906;47.684;10.806;2023-06-26T11:48:45;93315.09;;;29.06;nan
16738;BME280;17906;47.684;10.806;2023-06-26T11:51:12;93317.06;;;29.21;nan
16738;BME280;17906;47.684;10.806;2023-06-26T11:53:40;93311.50;;;28.74;nan
16738;BME280;17906;47.684;10.806;2023-06-26T11:56:08;93319.69;;;28.51;nan
16738;BME280;17906;47.684;10.806;2023-06-26T11:58:37;93329.25;;;28.34;nan
16738;BME280;17906;47.684;10.806;2023-06-26T12:01:19;93312.41;;;28.62;nan
16738;BME280;17906;47.684;10.806;2023-06-26T12:03:46;93324.59;;;28.10;nan
16738;BME280;17906;47.684;10.806;2023-06-26T12:06:13;93319.63;;;28.19;nan
16738;BME280;17906;47.684;10.806;2023-06-26T12:08:40;93323.72;;;27.94;nan
16738;BME280;17906;47.684;10.806;2023-06-26T12:11:07;93326.31;;;27.87;nan
16738;BME280;17906;47.684;10.806;2023-06-26T12:13:34;93317.69;;;27.92;nan
16738;BME280;17906;47.684;10.806;2023-06-26T12:16:03;93313.88;;;28.12;nan
16738;BME280;17906;47.684;10.806;2023-06-26T12:18:33;93330.97;;;27.83;nan
16738;BME280;17906;47.684;10.806;2023-06-26T12:21:00;93316.91;;;27.91;nan
16738;BME280;17906;47.684;10.806;2023-06-26T12:23:32;93329.25;;;28.06;nan
16738;BME280;17906;47.684;10.806;2023-06-26T12:25:58;93311.97;;;28.00;nan
16738;BME280;17906;47.684;10.806;2023-06-26T12:28:25;93320.63;;;28.11;nan
16738;BME280;17906;47.684;10.806;2023-06-26T12:31:15;93323.00;;;28.25;nan
16738;BME280;17906;47.684;10.806;2023-06-26T12:33:42;93322.09;;;28.21;nan
16738;BME280;17906;47.684;10.806;2023-06-26T12:36:15;93319.44;;;28.40;nan
16738;BME280;17906;47.684;10.806;2023-06-26T12:38:41;93316.56;;;28.37;nan
16738;BME280;17906;47.684;10.806;2023-06-26T12:41:12;93316.84;;;28.19;nan
16738;BME280;17906;47.684;10.806;2023-06-26T12:43:44;93329.81;;;28.12;nan
16738;BME280;17906;47.684;10.806;2023-06-26T12:46:11;93318.91;;;28.07;nan
16738;BME280;17906;47.684;10.806;2023-06-26T12:48:40;93316.22;;;28.10;nan
16738;BME280;17906;47.684;10.806;2023-06-26T12:51:09;93314.75;;;28.00;nan
16738;BME280;17906;47.684;10.806;2023-06-26T12:53:36;93320.91;;;27.78;nan
16738;BME280;17906;47.684;10.806;2023-06-26T12:56:04;93322.53;;;27.79;nan
16738;BME280;17906;47.684;10.806;2023-06-26T12:58:31;93315.53;;;27.73;nan
16738;BME280;17906;47.684;10.806;2023-06-26T13:00:57;93315.53;;;27.73;nan